Bostwick, Florida
Current Conditions -  °F | °C
As of 6:58 PM on Friday 31 Oct 2014 (Local Time) from KSGJ Reporting Station
Broken Clouds Broken Clouds  
Wind Chill: 69°   Ceiling: 5500
Heat Index: 69°   Visibility: 10mi
Dew Point: 58°   Wind: 5mph
Humidity: 68%   Direction: 280°W
Pressure: 29.83"   Gusts: NA
Location:  29.77°N, 81.64°W
Report Text: KSGJ 312258Z 28004KT 10SM BKN055 21/14 A2983 RMK AO2 SLP101 T02060144
Loading
Personal Weather Stations






























Interactive Weather Map
Tropical Storm Tracking
New forecast layout! Learn more

10-Day Weather Forecast

Advertisements
Track Severe Weather on mobile